Time;durP1;ratioP1;P1;durP2;ratioP2;P2;SDS_P1;SDS_P2;PMS_P1;PMS_P2;Temp;Humidity;BMP_temperature;BMP_pressure;BME280_temperature;BME280_humidity;BME280_pressure;Samples;Min_cycle;Max_cycle;Signal;HPM_P1;HPM_P2
2022/05/21 13:20:53;;;;;;;10.33;5.53;;;15.60;65.40;;;;;;5073873;28;20648;-50
2022/05/21 13:23:33;;;;;;;9.77;5.47;;;15.70;66.80;;;;;;5062927;28;20480;-50
2022/05/21 13:26:00;;;;;;;9.37;4.80;;;15.90;54.60;;;;;;5060529;28;20539;-49
2022/05/21 13:28:27;;;;;;;10.17;4.93;;;16.00;99.90;;;;;;5060487;28;20556;-50
2022/05/21 13:30:54;;;;;;;8.43;5.97;;;15.90;86.40;;;;;;5063226;28;20584;-49
2022/05/21 13:33:30;;;;;;;13.20;5.07;;;15.90;93.20;;;;;;5064932;28;20477;-50
2022/05/21 13:36:01;;;;;;;7.40;4.53;;;15.80;85.50;;;;;;5061503;28;20547;-49
2022/05/21 13:38:33;;;;;;;7.80;3.90;;;15.80;93.60;;;;;;5055245;28;20870;-49
2022/05/21 13:41:05;;;;;;;4.87;1.87;;;15.40;37.00;;;;;;5059928;28;20477;-49
2022/05/21 13:43:36;;;;;;;12.03;2.27;;;14.80;99.90;;;;;;5067542;28;21056;-50
2022/05/21 13:46:03;;;;;;;6.60;2.67;;;14.50;80.00;;;;;;5061489;28;20951;-50
2022/05/21 13:48:36;;;;;;;8.67;3.90;;;14.10;99.90;;;;;;5055716;28;21038;-50
2022/05/21 13:51:04;;;;;;;5.00;3.60;;;13.90;99.90;;;;;;5063303;28;20520;-50
2022/05/21 13:53:32;;;;;;;6.80;3.80;;;13.80;99.90;;;;;;5060896;28;20457;-49
2022/05/21 13:56:02;;;;;;;8.93;4.90;;;13.80;99.90;;;;;;5062300;28;20515;-50
2022/05/21 13:58:30;;;;;;;9.87;4.80;;;13.90;99.90;;;;;;5062991;28;20453;-50
2022/05/21 14:00:58;;;;;;;8.90;4.70;;;14.30;84.00;;;;;;5058310;28;20584;-50
2022/05/21 14:03:31;;;;;;;10.03;3.90;;;14.70;56.60;;;;;;5062234;28;20575;-49
2022/05/21 14:06:00;;;;;;;6.97;3.60;;;15.00;46.20;;;;;;5062936;28;20457;-49
2022/05/21 14:08:32;;;;;;;4.50;4.00;;;15.20;46.20;;;;;;5058481;28;20556;-50
2022/05/21 14:11:02;;;;;;;5.87;2.50;;;15.50;47.60;;;;;;5065386;28;20504;-50
2022/05/21 14:13:32;;;;;;;6.67;2.57;;;15.40;99.90;;;;;;5062821;28;20538;-50
2022/05/21 14:16:00;;;;;;;7.60;2.47;;;15.20;99.90;;;;;;5061805;28;20548;-50
2022/05/21 14:18:30;;;;;;;8.73;2.40;;;15.10;99.90;;;;;;5062136;28;20536;-49
2022/05/21 14:20:59;;;;;;;5.23;1.83;;;15.20;99.90;;;;;;5063642;28;20488;-50
2022/05/21 14:23:31;;;;;;;4.70;2.40;;;15.20;25.70;;;;;;5065220;28;20544;-50
2022/05/21 14:26:35;;;;;;;4.63;2.23;;;15.20;99.90;;;;;;5060389;28;21645;-50
2022/05/21 14:29:33;;;;;;;5.03;2.00;;;15.20;23.90;;;;;;5049935;28;20991;-50
2022/05/21 14:32:12;;;;;;;4.90;2.10;;;15.30;99.90;;;;;;5051079;28;20911;-51
2022/05/21 14:34:39;;;;;;;5.57;1.70;;;15.50;49.50;;;;;;5046854;28;20547;-51
2022/05/21 14:37:05;;;;;;;2.17;1.97;;;15.70;51.80;;;;;;5046887;28;20492;-50
2022/05/21 14:39:33;;;;;;;4.33;1.67;;;16.00;26.70;;;;;;5034962;28;20577;-50
2022/05/21 14:42:01;;;;;;;9.10;2.10;;;16.10;66.90;;;;;;5038583;28;20548;-50
2022/05/21 14:44:28;;;;;;;4.80;1.90;;;16.30;75.70;;;;;;5041503;28;20556;-49
2022/05/21 14:49:40;;;;;;;5.50;1.90;;;16.50;61.60;;;;;;5043426;28;20903;-50
2022/05/21 14:54:57;;;;;;;5.73;2.10;;;16.80;99.90;;;;;;5038735;28;20487;-49
2022/05/21 14:57:24;;;;;;;3.50;1.60;;;17.00;99.90;;;;;;5041654;28;20881;-50
2022/05/21 14:59:50;;;;;;;7.27;1.83;;;17.10;99.90;;;;;;5041410;28;20572;-50
2022/05/21 15:02:17;;;;;;;1.40;1.30;;;17.30;99.90;;;;;;5040961;28;21051;-49
2022/05/21 15:04:44;;;;;;;3.77;1.50;;;17.30;99.90;;;;;;5046044;28;20462;-50
2022/05/21 15:07:16;;;;;;;5.47;1.43;;;17.30;99.90;;;;;;5038374;28;20592;-49
2022/05/21 15:09:44;;;;;;;3.47;1.37;;;17.40;36.10;;;;;;5040740;28;20568;-49
2022/05/21 15:12:12;;;;;;;3.30;1.57;;;17.40;40.70;;;;;;5038374;28;20495;-50
2022/05/21 15:14:39;;;;;;;5.70;2.00;;;17.60;29.20;;;;;;5040537;28;20519;-50
2022/05/21 15:17:07;;;;;;;2.83;1.50;;;17.70;36.30;;;;;;5041228;28;22280;-50
2022/05/21 15:19:34;;;;;;;3.53;1.50;;;17.70;74.40;;;;;;5039391;28;20500;-50
2022/05/21 15:22:01;;;;;;;3.63;1.40;;;17.80;81.40;;;;;;5041519;28;20466;-50
2022/05/21 15:24:27;;;;;;;40.97;8.90;;;17.80;54.20;;;;;;5045741;28;21002;-50
2022/05/21 15:26:54;;;;;;;33.63;9.40;;;18.00;70.40;;;;;;5042418;28;20558;-50
2022/05/21 15:29:22;;;;;;;16.63;4.37;;;18.00;77.70;;;;;;5040234;28;20893;-50
2022/05/21 15:31:48;;;;;;;17.30;5.60;;;18.00;83.80;;;;;;5040031;28;20552;-49
2022/05/21 15:34:15;;;;;;;15.40;6.07;;;17.90;71.40;;;;;;5046176;28;20531;-50
2022/05/21 15:36:41;;;;;;;38.63;13.70;;;18.00;84.40;;;;;;5044842;28;20552;-49
2022/05/21 15:39:09;;;;;;;27.23;10.60;;;18.20;87.90;;;;;;5046642;28;21021;-50
2022/05/21 15:41:35;;;;;;;21.30;10.83;;;18.60;94.20;;;;;;5050600;28;20517;-51
2022/05/21 15:44:02;;;;;;;91.47;40.33;;;19.00;99.90;;;;;;5049212;28;20871;-49
2022/05/21 15:46:29;;;;;;;21.03;7.80;;;19.00;99.90;;;;;;5036520;28;20472;-50
2022/05/21 15:48:56;;;;;;;95.43;40.00;;;18.80;99.90;;;;;;5039358;28;20535;-50
2022/05/21 15:51:25;;;;;;;12.57;7.13;;;18.70;99.90;;;;;;5040206;28;20899;-50
2022/05/21 15:53:53;;;;;;;14.80;4.80;;;18.60;99.90;;;;;;5040167;28;20462;-50
2022/05/21 15:56:20;;;;;;;3.57;2.60;;;18.60;99.90;;;;;;5046466;28;20470;-50
2022/05/21 15:58:47;;;;;;;15.80;7.00;;;18.60;99.90;;;;;;5043700;28;20552;-50
2022/05/21 16:01:18;;;;;;;8.40;4.50;;;18.50;99.90;;;;;;5042365;28;20510;-50
2022/05/21 16:03:47;;;;;;;16.70;6.07;;;18.70;99.90;;;;;;5044895;28;20509;-50
2022/05/21 16:06:13;;;;;;;5.63;2.67;;;18.60;99.90;;;;;;5056214;28;20457;-50
2022/05/21 16:08:40;;;;;;;6.13;4.00;;;18.70;99.90;;;;;;5047633;28;20520;-50
2022/05/21 16:11:07;;;;;;;4.67;2.90;;;18.70;99.90;;;;;;5047055;28;20600;-49
2022/05/21 16:13:35;;;;;;;7.97;2.30;;;18.70;99.90;;;;;;5045315;28;20488;-51
2022/05/21 16:16:01;;;;;;;8.30;4.60;;;18.60;99.90;;;;;;5045331;28;20469;-50
2022/05/21 16:18:28;;;;;;;12.67;5.50;;;18.50;99.90;;;;;;5051725;28;20489;-50
2022/05/21 16:20:56;;;;;;;2.80;1.63;;;18.40;99.90;;;;;;5046499;28;20581;-50
2022/05/21 16:23:22;;;;;;;15.17;3.37;;;18.10;99.90;;;;;;5055025;28;21015;-50
2022/05/21 16:25:50;;;;;;;6.27;2.30;;;17.90;99.90;;;;;;5056838;28;20496;-50
2022/05/21 16:28:17;;;;;;;4.97;2.13;;;17.90;99.90;;;;;;5048271;28;20462;-50
2022/05/21 16:30:44;;;;;;;2.80;1.50;;;17.90;99.90;;;;;;5044096;28;20605;-50
2022/05/21 16:33:14;;;;;;;9.80;2.23;;;18.10;99.90;;;;;;5046314;28;20456;-50
2022/05/21 16:35:40;;;;;;;8.50;1.87;;;18.20;99.90;;;;;;5043748;28;20512;-51
2022/05/21 16:38:08;;;;;;;5.53;2.00;;;18.30;99.90;;;;;;5048703;28;20500;-50
2022/05/21 16:40:35;;;;;;;3.90;1.70;;;18.30;99.90;;;;;;5047853;28;20940;-50
2022/05/21 16:43:02;;;;;;;3.80;1.40;;;18.40;99.90;;;;;;5052770;28;20578;-51
2022/05/21 16:45:28;;;;;;;3.37;2.37;;;18.40;99.90;;;;;;5050209;28;20541;-50
2022/05/21 16:47:55;;;;;;;8.13;1.83;;;18.30;99.90;;;;;;5046393;28;21070;-50
2022/05/21 16:50:22;;;;;;;3.37;1.70;;;18.30;99.90;;;;;;5039212;28;20565;-50
2022/05/21 16:52:49;;;;;;;4.03;2.20;;;18.30;99.90;;;;;;5044171;28;21025;-50
2022/05/21 16:55:17;;;;;;;4.87;2.63;;;18.30;99.90;;;;;;5049681;28;20462;-50
2022/05/21 16:57:44;;;;;;;6.07;2.30;;;18.30;99.90;;;;;;5043362;28;20489;-51
2022/05/21 17:00:11;;;;;;;5.10;1.93;;;18.20;99.90;;;;;;5038092;28;20486;-50
2022/05/21 17:02:39;;;;;;;4.33;1.73;;;18.30;99.90;;;;;;5041576;28;20900;-50
2022/05/21 17:05:07;;;;;;;3.90;1.80;;;18.30;99.90;;;;;;5038057;28;20461;-50
2022/05/21 17:07:35;;;;;;;4.00;1.27;;;18.30;99.90;;;;;;5033382;28;20463;-50
2022/05/21 17:10:02;;;;;;;6.87;2.17;;;18.30;99.90;;;;;;5036394;28;21017;-50
2022/05/21 17:12:30;;;;;;;5.47;1.87;;;18.30;99.90;;;;;;5033931;28;20927;-53
2022/05/21 17:14:57;;;;;;;3.93;1.30;;;18.30;99.90;;;;;;5047163;28;20547;-52
2022/05/21 17:17:23;;;;;;;5.97;1.40;;;18.20;99.90;;;;;;5044255;28;20486;-52
2022/05/21 17:19:50;;;;;;;6.57;2.00;;;18.20;99.90;;;;;;5045645;28;20490;-53
2022/05/21 17:22:18;;;;;;;10.10;2.23;;;18.10;99.90;;;;;;5039730;28;20545;-52
2022/05/21 17:24:47;;;;;;;3.13;2.13;;;18.10;99.90;;;;;;5043148;28;20550;-52
2022/05/21 17:32:58;;;;;;;3.33;1.27;;;18.10;99.90;;;;;;4998259;28;20487;-51
2022/05/21 17:35:26;;;;;;;4.73;1.33;;;18.10;99.90;;;;;;5038903;28;20458;-52
2022/05/21 17:37:53;;;;;;;6.77;1.57;;;18.00;99.90;;;;;;5047037;28;20553;-52
2022/05/21 17:40:20;;;;;;;3.57;1.13;;;17.90;99.90;;;;;;5040803;28;20589;-52
2022/05/21 17:42:47;;;;;;;9.03;2.53;;;17.80;99.90;;;;;;5045071;28;21133;-53
2022/05/21 17:45:19;;;;;;;7.60;1.27;;;17.90;99.90;;;;;;5041287;28;20545;-52
2022/05/21 17:47:45;;;;;;;2.40;1.20;;;17.80;99.90;;;;;;5039493;28;20888;-52
2022/05/21 17:50:15;;;;;;;5.17;1.80;;;17.70;99.90;;;;;;5043933;28;20478;-52
2022/05/21 17:52:42;;;;;;;2.00;1.47;;;17.60;99.90;;;;;;5039325;28;20462;-52
2022/05/21 17:55:10;;;;;;;4.47;1.70;;;17.60;99.90;;;;;;5046828;28;20583;-52
2022/05/21 17:57:36;;;;;;;2.50;1.13;;;17.60;99.90;;;;;;5041149;28;20499;-52
2022/05/21 18:00:05;;;;;;;8.00;2.53;;;17.50;99.90;;;;;;5049210;28;20492;-52
2022/05/21 18:02:34;;;;;;;1.70;0.87;;;17.40;99.90;;;;;;5041700;28;22449;-52
2022/05/21 18:05:01;;;;;;;6.80;1.47;;;17.40;99.90;;;;;;5042881;28;20459;-52
2022/05/21 18:07:28;;;;;;;1.93;1.30;;;17.20;99.90;;;;;;5050583;28;20491;-52
2022/05/21 18:09:54;;;;;;;4.50;1.80;;;17.10;99.90;;;;;;5051605;28;21074;-52
2022/05/21 18:12:21;;;;;;;2.80;1.33;;;17.10;99.90;;;;;;5040892;28;20490;-52
2022/05/21 18:14:47;;;;;;;7.00;1.73;;;17.10;99.90;;;;;;5045006;28;20569;-52
2022/05/21 18:20:01;;;;;;;3.60;1.30;;;17.00;99.90;;;;;;5042524;28;20555;-53
2022/05/21 18:22:27;;;;;;;3.37;1.10;;;17.00;99.90;;;;;;5043663;28;20463;-54
2022/05/21 18:24:54;;;;;;;4.97;1.17;;;16.80;99.90;;;;;;5044346;28;20548;-53
2022/05/21 18:27:21;;;;;;;5.53;1.53;;;16.80;99.90;;;;;;5053120;28;20489;-53
2022/05/21 18:29:47;;;;;;;5.03;1.43;;;16.80;99.90;;;;;;5045991;28;20568;-53
2022/05/21 18:32:17;;;;;;;5.40;1.47;;;16.70;99.90;;;;;;5046245;28;20454;-53
2022/05/21 18:34:45;;;;;;;10.17;1.27;;;16.60;99.90;;;;;;5047219;28;20461;-53
2022/05/21 18:37:13;;;;;;;5.47;1.70;;;16.60;99.90;;;;;;5047087;28;20934;-52
2022/05/21 18:39:40;;;;;;;4.57;1.57;;;16.50;99.90;;;;;;5045218;28;20572;-53
2022/05/21 18:42:07;;;;;;;9.10;1.40;;;16.50;99.90;;;;;;5047050;28;20478;-52
2022/05/21 18:44:35;;;;;;;4.77;1.43;;;16.40;99.90;;;;;;5041803;28;20489;-53
2022/05/21 18:49:29;;;;;;;2.20;1.30;;;16.30;99.90;;;;;;5001565;28;20467;-52
2022/05/21 18:51:56;;;;;;;8.37;1.70;;;16.20;99.90;;;;;;5004650;28;20547;-52
2022/05/21 18:54:23;;;;;;;2.50;1.73;;;16.20;99.90;;;;;;5011118;28;20463;-54
2022/05/21 18:56:50;;;;;;;6.33;1.30;;;16.10;99.90;;;;;;5009661;28;20644;-52
2022/05/21 18:59:17;;;;;;;4.30;1.27;;;16.00;99.90;;;;;;5003306;28;20982;-53
2022/05/21 19:01:44;;;;;;;4.37;1.30;;;16.00;99.90;;;;;;4998278;28;20502;-54
2022/05/21 19:04:12;;;;;;;5.20;1.20;;;15.90;99.90;;;;;;5009024;28;20562;-54
2022/05/21 19:06:39;;;;;;;2.10;1.10;;;15.80;99.90;;;;;;5006961;28;21021;-52
2022/05/21 19:09:06;;;;;;;3.50;1.60;;;15.70;99.90;;;;;;5005515;28;20586;-52
2022/05/21 19:11:34;;;;;;;2.60;1.40;;;15.70;99.90;;;;;;5003510;28;20579;-52
2022/05/21 19:14:01;;;;;;;11.30;1.63;;;15.60;99.90;;;;;;5006486;28;20464;-53
2022/05/21 19:16:30;;;;;;;4.50;1.53;;;15.60;99.90;;;;;;5006562;28;21025;-51
2022/05/21 19:19:15;;;;;;;5.40;1.40;;;15.50;99.90;;;;;;5008764;28;20489;-52
2022/05/21 19:21:44;;;;;;;2.63;1.63;;;15.50;99.90;;;;;;5004047;28;20464;-52
2022/05/21 19:24:12;;;;;;;5.20;1.70;;;15.40;99.90;;;;;;5008288;28;20495;-52
2022/05/21 19:26:44;;;;;;;5.27;1.27;;;15.40;99.90;;;;;;5011518;28;20975;-52
2022/05/21 19:29:11;;;;;;;4.07;1.30;;;15.30;99.90;;;;;;5004279;28;20555;-51
2022/05/21 19:31:37;;;;;;;3.93;1.60;;;15.30;99.90;;;;;;5005421;28;20451;-52
2022/05/21 19:34:05;;;;;;;1.70;1.60;;;15.20;99.90;;;;;;5007105;28;20459;-52
2022/05/21 19:36:32;;;;;;;4.80;1.50;;;15.10;99.90;;;;;;5010954;28;20946;-51
2022/05/21 19:38:58;;;;;;;3.77;1.33;;;15.10;99.90;;;;;;5009061;28;20487;-51
2022/05/21 19:41:24;;;;;;;6.80;2.10;;;15.10;99.90;;;;;;5006673;28;20479;-53
2022/05/21 19:43:54;;;;;;;5.27;1.73;;;15.10;99.90;;;;;;5007486;28;20460;-51
2022/05/21 19:46:22;;;;;;;3.70;2.47;;;15.00;99.90;;;;;;5001336;28;20319;-51
2022/05/21 19:48:50;;;;;;;5.30;2.80;;;14.90;99.90;;;;;;5000596;28;20496;-53
2022/05/21 19:51:18;;;;;;;3.73;1.27;;;14.90;99.90;;;;;;5008554;28;20551;-51
2022/05/21 19:53:45;;;;;;;3.67;1.87;;;14.90;99.90;;;;;;5008510;28;20546;-52
2022/05/21 19:56:14;;;;;;;6.13;1.90;;;14.80;99.90;;;;;;5004909;28;20557;-52
2022/05/21 19:58:41;;;;;;;3.53;1.40;;;14.80;99.90;;;;;;5002168;28;20483;-52
2022/05/21 20:01:09;;;;;;;5.77;1.43;;;14.80;99.90;;;;;;5007026;28;20570;-51
2022/05/21 20:03:36;;;;;;;1.03;0.90;;;14.70;99.90;;;;;;5003896;28;20495;-50
2022/05/21 20:06:03;;;;;;;7.53;1.73;;;14.70;99.90;;;;;;5008360;28;20514;-52
2022/05/21 20:08:30;;;;;;;9.30;1.80;;;14.70;99.90;;;;;;5000876;28;20487;-52
2022/05/21 20:10:57;;;;;;;4.33;1.40;;;14.60;99.90;;;;;;5004008;28;20451;-51
2022/05/21 20:13:23;;;;;;;5.53;2.00;;;14.60;99.90;;;;;;5002454;28;20544;-52
2022/05/21 20:15:50;;;;;;;3.17;1.20;;;14.50;99.90;;;;;;5008230;28;20550;-52
2022/05/21 20:18:19;;;;;;;6.63;1.60;;;14.50;97.70;;;;;;5007058;28;20490;-51
2022/05/21 20:20:46;;;;;;;10.43;1.43;;;14.50;99.90;;;;;;5009862;28;20488;-51
2022/05/21 20:23:13;;;;;;;4.20;1.80;;;14.50;98.40;;;;;;5010265;28;22038;-52
2022/05/21 20:25:41;;;;;;;7.63;2.17;;;14.40;98.40;;;;;;5007377;28;20455;-52
2022/05/21 20:28:09;;;;;;;9.00;1.90;;;14.30;94.90;;;;;;5006887;28;20507;-51
2022/05/21 20:30:35;;;;;;;5.37;1.70;;;14.30;91.10;;;;;;5006194;28;20472;-51
2022/05/21 20:33:04;;;;;;;2.30;1.40;;;14.20;92.70;;;;;;5003970;28;20545;-50
2022/05/21 20:35:32;;;;;;;6.10;3.20;;;14.20;91.20;;;;;;5010310;28;20459;-52
2022/05/21 20:37:59;;;;;;;6.17;2.00;;;14.20;89.00;;;;;;5007317;28;20955;-51
2022/05/21 20:40:26;;;;;;;5.30;1.67;;;14.10;94.60;;;;;;5005818;28;20567;-51
2022/05/21 20:42:52;;;;;;;2.57;1.47;;;14.10;90.60;;;;;;5008536;28;20483;-51
2022/05/21 20:45:19;;;;;;;2.77;1.37;;;14.00;90.10;;;;;;5005846;28;20547;-52
2022/05/21 20:50:31;;;;;;;2.73;1.60;;;13.90;88.60;;;;;;5005957;28;21185;-51
2022/05/21 20:52:58;;;;;;;4.60;1.17;;;13.90;77.40;;;;;;5006978;28;20551;-51
2022/05/21 20:55:26;;;;;;;2.87;1.37;;;13.90;81.60;;;;;;5005174;28;20551;-51
2022/05/21 20:57:53;;;;;;;3.97;1.30;;;13.80;68.70;;;;;;5006620;28;20489;-52
2022/05/21 21:00:21;;;;;;;5.90;1.80;;;13.70;79.80;;;;;;5008486;28;21250;-51
2022/05/21 21:02:47;;;;;;;2.90;1.20;;;13.70;80.50;;;;;;5002362;28;20483;-51
2022/05/21 21:05:14;;;;;;;3.13;1.67;;;13.70;80.50;;;;;;5005165;28;20559;-51
2022/05/21 21:07:42;;;;;;;5.13;2.07;;;13.60;80.60;;;;;;5007489;28;20483;-52
2022/05/21 21:10:09;;;;;;;2.63;1.53;;;13.60;76.70;;;;;;5007581;28;20555;-51
2022/05/21 21:12:35;;;;;;;5.23;1.73;;;13.60;81.30;;;;;;5001411;28;20546;-51
2022/05/21 21:15:02;;;;;;;4.77;1.50;;;13.50;81.30;;;;;;5001577;28;20474;-52
2022/05/21 21:17:28;;;;;;;5.57;1.30;;;13.50;65.70;;;;;;5001110;28;20488;-51
2022/05/21 21:19:56;;;;;;;3.73;1.50;;;13.40;67.90;;;;;;5004055;28;20883;-53
2022/05/21 21:22:22;;;;;;;2.50;1.37;;;13.40;72.10;;;;;;5003392;28;20629;-51
2022/05/21 21:24:50;;;;;;;2.30;1.37;;;13.40;63.50;;;;;;5006611;28;22063;-51
2022/05/21 21:27:17;;;;;;;9.00;2.27;;;13.30;73.20;;;;;;5005435;28;20582;-50
2022/05/21 21:29:43;;;;;;;2.97;2.03;;;13.30;71.40;;;;;;5004065;28;20903;-51
2022/05/21 21:32:11;;;;;;;2.80;1.30;;;13.20;74.60;;;;;;4997747;28;21021;-50
2022/05/21 21:34:37;;;;;;;4.90;1.40;;;13.20;81.10;;;;;;4999483;28;20550;-52
2022/05/21 21:37:04;;;;;;;2.90;1.67;;;13.20;85.60;;;;;;5002023;28;20459;-52
2022/05/21 21:39:31;;;;;;;2.20;1.00;;;13.20;87.80;;;;;;5001572;28;20540;-52
2022/05/21 21:41:59;;;;;;;3.93;1.13;;;13.20;91.20;;;;;;5010907;28;20475;-51
2022/05/21 21:44:25;;;;;;;1.63;1.23;;;13.20;83.60;;;;;;5012513;28;20996;-51
2022/05/21 21:46:53;;;;;;;5.80;1.50;;;13.20;91.90;;;;;;5010504;28;20498;-52
2022/05/21 21:49:20;;;;;;;5.07;1.80;;;13.10;95.10;;;;;;5009106;28;20467;-52
2022/05/21 21:51:46;;;;;;;2.17;1.13;;;13.20;91.70;;;;;;5011998;28;20555;-52
2022/05/21 21:54:13;;;;;;;2.63;1.30;;;13.20;88.10;;;;;;5004436;28;20554;-52
2022/05/21 21:56:39;;;;;;;5.33;1.13;;;13.20;90.30;;;;;;5010882;28;20550;-52
2022/05/21 22:01:52;;;;;;;5.60;1.40;;;13.10;95.00;;;;;;5011488;28;20498;-52
2022/05/21 22:04:20;;;;;;;3.13;1.70;;;13.00;99.90;;;;;;5013307;28;20862;-52
2022/05/21 22:06:49;;;;;;;4.67;1.17;;;13.10;97.40;;;;;;5004455;28;21035;-53
2022/05/21 22:09:16;;;;;;;2.07;1.00;;;13.00;92.90;;;;;;5010080;28;20566;-56
2022/05/21 22:11:44;;;;;;;7.00;1.53;;;13.00;89.40;;;;;;5009554;28;20539;-52
2022/05/21 22:14:13;;;;;;;4.13;1.60;;;13.00;95.00;;;;;;5003776;28;20456;-52
2022/05/21 22:16:40;;;;;;;6.13;1.30;;;12.90;89.40;;;;;;5008167;28;20459;-52
2022/05/21 22:19:06;;;;;;;1.40;1.20;;;12.90;88.40;;;;;;5012542;28;20570;-53
2022/05/21 22:21:33;;;;;;;5.87;2.27;;;12.80;86.60;;;;;;5008943;28;20570;-51
2022/05/21 22:24:00;;;;;;;3.33;1.53;;;12.80;87.90;;;;;;5008968;28;20834;-52
2022/05/21 22:26:27;;;;;;;3.60;1.43;;;12.70;86.40;;;;;;5011435;28;20547;-51
2022/05/21 22:28:53;;;;;;;4.90;1.97;;;12.70;78.20;;;;;;5007847;28;21167;-52
2022/05/21 22:31:21;;;;;;;5.67;1.50;;;12.70;85.10;;;;;;5008689;28;20566;-52
2022/05/21 22:33:48;;;;;;;2.30;1.13;;;12.60;79.40;;;;;;5009609;28;20992;-52
2022/05/21 22:36:15;;;;;;;2.20;1.27;;;12.60;74.00;;;;;;5008624;28;20551;-52
2022/05/21 22:38:41;;;;;;;7.40;1.57;;;12.60;72.50;;;;;;5010858;28;20570;-51
2022/05/21 22:41:08;;;;;;;3.33;1.10;;;12.50;75.30;;;;;;5011334;28;20513;-52
2022/05/21 22:43:34;;;;;;;4.80;1.70;;;12.50;66.70;;;;;;5007158;28;21034;-52
2022/05/21 22:46:04;;;;;;;3.47;1.57;;;12.50;66.50;;;;;;5009655;28;20475;-52
2022/05/21 22:48:32;;;;;;;2.80;1.30;;;12.40;61.60;;;;;;5012274;28;20590;-53
2022/05/21 22:51:00;;;;;;;2.63;1.40;;;12.40;57.90;;;;;;5011299;28;20495;-53
2022/05/21 22:53:27;;;;;;;2.47;1.33;;;12.30;55.40;;;;;;5011428;28;20965;-51
2022/05/21 22:55:53;;;;;;;6.07;1.77;;;12.20;46.70;;;;;;5009005;28;20549;-52
2022/05/21 22:58:20;;;;;;;2.77;1.10;;;12.20;45.60;;;;;;5007934;28;20579;-52
2022/05/21 23:00:47;;;;;;;1.77;1.20;;;12.10;48.40;;;;;;5008628;28;21020;-52
2022/05/21 23:03:13;;;;;;;4.17;1.67;;;12.10;35.50;;;;;;5011324;28;21028;-51
2022/05/21 23:05:42;;;;;;;2.70;1.60;;;12.00;34.70;;;;;;5008812;28;20546;-52
2022/05/21 23:08:11;;;;;;;4.20;2.90;;;11.90;25.30;;;;;;5006506;28;20480;-52
2022/05/21 23:10:38;;;;;;;4.30;1.80;;;11.90;92.30;;;;;;5006070;28;20837;-52
2022/05/21 23:13:04;;;;;;;7.07;2.13;;;11.80;88.00;;;;;;5006873;28;20551;-52
2022/05/21 23:18:19;;;;;;;2.63;1.30;;;11.70;99.90;;;;;;5010053;28;20466;-53
2022/05/21 23:20:49;;;;;;;4.43;1.63;;;11.60;99.90;;;;;;5010183;28;21026;-52
2022/05/21 23:23:18;;;;;;;5.50;1.73;;;11.70;99.90;;;;;;5007377;28;20570;-53
2022/05/21 23:25:45;;;;;;;6.07;2.40;;;11.60;99.90;;;;;;5008772;28;20912;-53
2022/05/21 23:28:12;;;;;;;9.40;2.00;;;11.60;99.90;;;;;;5003663;28;20491;-52
2022/05/21 23:30:39;;;;;;;4.53;1.87;;;11.50;99.90;;;;;;5009657;28;21008;-52
2022/05/21 23:33:06;;;;;;;6.77;1.50;;;11.50;99.90;;;;;;5011642;28;20585;-52
2022/05/21 23:35:34;;;;;;;2.30;1.77;;;11.50;99.90;;;;;;5004217;28;20555;-52
2022/05/21 23:38:02;;;;;;;9.47;1.93;;;11.40;99.90;;;;;;5010734;28;20533;-52
2022/05/21 23:40:28;;;;;;;3.83;1.43;;;11.40;99.90;;;;;;5010138;28;20559;-52
2022/05/21 23:42:55;;;;;;;3.73;1.80;;;11.40;99.90;;;;;;5011306;28;20519;-52
2022/05/21 23:45:22;;;;;;;6.23;1.80;;;11.30;99.90;;;;;;5010589;28;20538;-53
2022/05/21 23:47:48;;;;;;;8.40;3.37;;;11.30;99.90;;;;;;5008075;28;20570;-53
2022/05/21 23:50:15;;;;;;;6.30;1.67;;;11.30;99.90;;;;;;5007764;28;20550;-52
2022/05/21 23:52:42;;;;;;;3.73;1.80;;;11.20;99.90;;;;;;5010499;28;20462;-52
2022/05/21 23:55:11;;;;;;;5.33;1.40;;;11.20;99.90;;;;;;5007386;28;20447;-52
2022/05/21 23:57:38;;;;;;;6.13;1.77;;;11.10;99.90;;;;;;5009790;28;21020;-52
